Elmwood, Massachusetts
Current Conditions -  °F | °C
As of 4:52 AM on Sunday 26 Oct 2014 (Local Time) from KTAN Reporting Station
Few Clouds Few Clouds  
Wind Chill: 52°   Ceiling: Unl
Heat Index: 52°   Visibility: 10mi
Dew Point: 44°   Wind: 0mph
Humidity: 74%   Direction: NA
Pressure: 29.45"   Gusts: NA
Location:  42.01°N, 70.96°W
Report Text: KTAN 260852Z AUTO 00000KT 10SM FEW070 FEW090 11/07 A2945 RMK AO2 SLP973 T01110067 56013
Loading
Personal Weather Stations






























Interactive Weather Map
Tropical Storm Tracking
New forecast layout! Learn more

10-Day Weather Forecast

Advertisements
Track Severe Weather on mobile